Terminal Aerodrome Forecast
Issued by NWS Pueblo, CO

Home | Current Version | Previous Version | Text Only | Print | Product List | Glossary On
Versions: 1 2 3 4 5 6 7 8 9 10 11 12 13 14 15 16 17 18 19 20 21 22 23 24 25 26 27 28 29 30 31 32 33 34 35 36 37
000
FTUS45 KPUB 302331
TAFCOS
TAF
KCOS 302331Z 3100/3124 12010KT P6SM SCT090 SCT150
     FM310200 VRB04KT P6SM FEW100 SCT200
     FM310400 03007KT P6SM FEW100 SCT200
     FM311100 36012KT P6SM SCT100 BKN150
     FM311600 02012KT P6SM VCSH SCT060 BKN100
     FM311900 04012KT P6SM VCTS SCT060CB BKN100=

USA.gov is the U.S. government's official web portal to all federal, state and local government web resources and services.